createdAt,value
2022-10-07T00:00:30.283Z,98062.94
2022-10-07T00:01:32.097Z,98061.34
2022-10-07T00:02:33.990Z,98063.16
2022-10-07T00:03:36.262Z,98060.72
2022-10-07T00:04:38.053Z,98054.66
2022-10-07T00:05:39.845Z,98063.50
2022-10-07T00:06:41.636Z,98068.75
2022-10-07T00:07:43.671Z,98067.94
2022-10-07T00:08:52.723Z,98065.50
2022-10-07T00:09:54.542Z,98063.91
2022-10-07T00:10:56.336Z,98062.06
2022-10-07T00:12:00.236Z,98065.94
2022-10-07T00:13:02.660Z,98060.09
2022-10-07T00:14:05.202Z,98054.66
2022-10-07T00:15:07.215Z,98058.72
2022-10-07T00:16:10.895Z,98059.50
2022-10-07T00:17:12.850Z,98052.28
2022-10-07T00:18:14.800Z,98055.53
2022-10-07T00:19:16.667Z,98049.13
2022-10-07T00:20:18.475Z,98049.53
2022-10-07T00:21:20.461Z,98050.16
2022-10-07T00:22:22.286Z,98053.41
2022-10-07T00:23:24.165Z,98046.16
2022-10-07T00:24:25.940Z,98045.78
2022-10-07T00:25:27.726Z,98046.41
2022-10-07T00:26:31.292Z,98033.31
2022-10-07T00:27:33.063Z,98042.78
2022-10-07T00:28:35.479Z,98041.63
2022-10-07T00:29:37.380Z,98029.31
2022-10-07T00:30:39.180Z,98030.94
2022-10-07T00:31:41.958Z,98037.81
2022-10-07T00:32:43.916Z,98032.56
2022-10-07T00:33:45.773Z,98029.94
2022-10-07T00:34:47.602Z,98029.94
2022-10-07T00:35:49.354Z,98024.69
2022-10-07T00:36:51.265Z,98021.47
2022-10-07T00:37:53.083Z,98024.09
2022-10-07T00:38:56.565Z,98026.31
2022-10-07T00:39:58.462Z,98026.13
2022-10-07T00:41:00.250Z,98023.69
2022-10-07T00:42:02.003Z,98018.03
2022-10-07T00:43:18.893Z,98018.03
2022-10-07T00:44:36.101Z,98016.22
2022-10-07T00:45:37.962Z,98018.03
2022-10-07T00:46:40.483Z,98014.22
2022-10-07T00:47:45.730Z,98016.44
2022-10-07T00:48:48.632Z,98005.78
2022-10-07T00:50:02.830Z,98007.41
2022-10-07T00:51:04.794Z,98006.41
2022-10-07T00:52:06.668Z,98010.66
2022-10-07T00:53:10.089Z,98006.59
2022-10-07T00:54:14.714Z,98004.19
2022-10-07T00:55:18.569Z,97997.13
2022-10-07T00:56:20.369Z,98003.97
2022-10-07T00:57:26.892Z,97997.91
2022-10-07T00:58:33.741Z,97993.06
2022-10-07T00:59:35.795Z,97999.47
2022-10-07T01:00:39.544Z,97992.47
2022-10-07T01:01:42.492Z,97994.88
2022-10-07T01:02:45.567Z,97991.25
2022-10-07T01:03:48.286Z,97993.69
2022-10-07T01:04:51.606Z,97990.84
2022-10-07T01:05:53.423Z,97989.25
2022-10-07T01:06:55.452Z,97986.63
2022-10-07T01:07:59.395Z,97984.00
2022-10-07T01:09:01.417Z,97988.06
2022-10-07T01:10:03.963Z,97984.25
2022-10-07T01:11:14.317Z,97982.06
2022-10-07T01:12:24.339Z,97978.63
2022-10-07T01:13:32.753Z,97977.66
2022-10-07T01:14:42.114Z,97977.66
2022-10-07T01:15:48.767Z,97972.41
2022-10-07T01:17:08.037Z,97974.41
2022-10-07T01:18:35.825Z,97972.41
2022-10-07T01:19:43.421Z,97973.03
2022-10-07T01:20:53.913Z,97975.81
2022-10-07T01:22:11.942Z,97973.03
2022-10-07T01:23:16.816Z,97957.91
2022-10-07T01:24:38.773Z,97971.63
2022-10-07T01:25:47.122Z,97964.38
2022-10-07T01:26:52.132Z,97961.56
2022-10-07T01:27:56.824Z,97968.47
2022-10-07T01:29:04.626Z,97965.66
2022-10-07T01:30:07.952Z,97966.25
2022-10-07T01:31:12.455Z,97967.25
2022-10-07T01:32:20.882Z,97964.81
2022-10-07T01:33:28.012Z,97960.59
2022-10-07T01:34:30.401Z,97955.50
2022-10-07T01:35:36.885Z,97961.94
2022-10-07T01:36:38.632Z,97956.91
2022-10-07T01:37:43.772Z,97955.06
2022-10-07T01:38:52.375Z,97951.84
2022-10-07T01:39:56.708Z,97956.91
2022-10-07T01:41:04.664Z,97953.47
2022-10-07T01:42:06.691Z,97945.78
2022-10-07T01:43:08.678Z,97935.72
2022-10-07T01:44:12.174Z,97940.13
2022-10-07T01:45:17.460Z,97937.31
2022-10-07T01:46:23.637Z,97938.94
2022-10-07T01:47:26.145Z,97934.50
2022-10-07T01:48:28.129Z,97936.94
2022-10-07T01:49:30.023Z,97925.63
2022-10-07T01:50:32.036Z,97930.47
2022-10-07T01:51:35.791Z,97922.78
2022-10-07T01:53:12.731Z,97926.41
2022-10-07T01:54:34.757Z,97923.78
2022-10-07T01:55:50.649Z,97916.13
2022-10-07T01:57:04.518Z,97917.72
2022-10-07T01:58:09.255Z,97913.09
2022-10-07T01:59:30.386Z,97914.06
2022-10-07T02:00:34.348Z,97908.63
2022-10-07T02:01:41.497Z,97912.69
2022-10-07T02:02:56.787Z,97911.06
2022-10-07T02:04:23.059Z,97905.41
2022-10-07T02:05:37.046Z,97906.41
2022-10-07T02:06:45.001Z,97904.78
2022-10-07T02:08:00.280Z,97907.78
2022-10-07T02:09:04.524Z,97903.53
2022-10-07T02:10:24.173Z,97903.09
2022-10-07T02:11:31.149Z,97900.84
2022-10-07T02:12:53.937Z,97902.28
2022-10-07T02:14:00.387Z,97901.09
2022-10-07T02:15:15.835Z,97891.59
2022-10-07T02:16:36.488Z,97893.22
2022-10-07T02:17:43.009Z,97894.66
2022-10-07T02:18:48.635Z,97891.22
2022-10-07T02:19:56.793Z,97892.03
2022-10-07T02:20:59.731Z,97895.25
2022-10-07T02:22:04.772Z,97898.47
2022-10-07T02:23:08.940Z,97895.41
2022-10-07T02:24:11.652Z,97899.66
2022-10-07T02:25:15.574Z,97892.00
2022-10-07T02:26:19.712Z,97888.97
2022-10-07T02:27:25.473Z,97891.59
2022-10-07T02:28:28.503Z,97898.47
2022-10-07T02:29:34.317Z,97884.75
2022-10-07T02:30:36.630Z,97886.34
2022-10-07T02:31:41.712Z,97885.38
2022-10-07T02:32:46.793Z,97884.34
2022-10-07T02:33:51.355Z,97884.97
2022-10-07T02:34:55.264Z,97882.34
2022-10-07T02:36:02.238Z,97891.66
2022-10-07T02:37:10.579Z,97889.66
2022-10-07T02:38:15.059Z,97886.00
2022-10-07T02:39:17.324Z,97886.63
2022-10-07T02:40:19.254Z,97887.22
2022-10-07T02:41:42.598Z,97880.56
2022-10-07T02:42:52.647Z,97884.13
2022-10-07T02:43:57.961Z,97876.91
2022-10-07T02:45:11.492Z,97873.47
2022-10-07T02:46:22.800Z,97873.06
2022-10-07T02:47:36.418Z,97876.13
2022-10-07T02:48:42.355Z,97878.34
2022-10-07T02:49:47.011Z,97878.34
2022-10-07T02:50:51.287Z,97879.34
2022-10-07T02:52:05.697Z,97875.94
2022-10-07T02:53:08.498Z,97873.72
2022-10-07T02:54:11.358Z,97871.94
2022-10-07T02:55:16.375Z,97873.94
2022-10-07T02:56:20.885Z,97872.13
2022-10-07T02:57:25.054Z,97871.09
2022-10-07T02:58:27.043Z,97870.13
2022-10-07T02:59:30.585Z,97869.09
2022-10-07T03:00:35.004Z,97868.28
2022-10-07T03:01:42.543Z,97863.06
2022-10-07T03:03:05.189Z,97861.44
2022-10-07T03:04:07.451Z,97861.03
2022-10-07T03:05:09.662Z,97862.69
2022-10-07T03:06:14.468Z,97857.63
2022-10-07T03:07:17.265Z,97862.88
2022-10-07T03:08:19.738Z,97863.06
2022-10-07T03:09:21.720Z,97857.38
2022-10-07T03:10:23.612Z,97856.59
2022-10-07T03:11:25.416Z,97856.59
2022-10-07T03:12:29.163Z,97861.03
2022-10-07T03:13:31.507Z,97857.38
2022-10-07T03:14:36.030Z,97850.91
2022-10-07T03:15:42.334Z,97849.94
2022-10-07T03:16:44.490Z,97848.72
2022-10-07T03:17:46.807Z,97848.09
2022-10-07T03:18:49.336Z,97851.34
2022-10-07T03:19:51.125Z,97854.75
2022-10-07T03:20:56.659Z,97847.13
2022-10-07T03:21:58.430Z,97846.28
2022-10-07T03:23:00.778Z,97856.75
2022-10-07T03:24:05.143Z,97850.34
2022-10-07T03:25:07.201Z,97842.50
2022-10-07T03:26:09.018Z,97844.28
2022-10-07T03:27:10.801Z,97841.66
2022-10-07T03:28:14.318Z,97847.91
2022-10-07T03:29:16.217Z,97848.09
2022-10-07T03:30:24.245Z,97849.94
2022-10-07T03:31:27.857Z,97846.69
2022-10-07T03:32:30.181Z,97850.53
2022-10-07T03:33:32.077Z,97851.34
2022-10-07T03:34:33.892Z,97843.66
2022-10-07T03:35:35.674Z,97846.50
2022-10-07T03:36:37.427Z,97844.06
2022-10-07T03:37:39.278Z,97836.81
2022-10-07T03:38:41.090Z,97839.63
2022-10-07T03:39:42.886Z,97841.22
2022-10-07T03:40:44.823Z,97846.03
2022-10-07T03:41:49.150Z,97847.03
2022-10-07T03:42:50.982Z,97841.00
2022-10-07T03:43:52.930Z,97841.00
2022-10-07T03:44:54.688Z,97845.63
2022-10-07T03:46:00.637Z,97841.00
2022-10-07T03:47:07.591Z,97834.56
2022-10-07T03:48:12.373Z,97841.22
2022-10-07T03:49:14.336Z,97839.19
2022-10-07T03:50:16.180Z,97835.56
2022-10-07T03:51:18.019Z,97833.94
2022-10-07T03:52:19.824Z,97839.19
2022-10-07T03:53:22.470Z,97831.31
2022-10-07T03:54:24.191Z,97826.88
2022-10-07T03:55:25.975Z,97835.75
2022-10-07T03:56:27.836Z,97835.94
2022-10-07T03:57:48.195Z,97833.50
2022-10-07T03:58:50.094Z,97830.28
2022-10-07T03:59:53.829Z,97830.88
2022-10-07T04:01:09.345Z,97827.28
2022-10-07T04:02:11.208Z,97830.88
2022-10-07T04:03:13.826Z,97824.22
2022-10-07T04:04:15.694Z,97824.22
2022-10-07T04:05:18.298Z,97824.41
2022-10-07T04:06:20.119Z,97819.59
2022-10-07T04:07:23.126Z,97812.53
2022-10-07T04:08:28.487Z,97818.56
2022-10-07T04:09:30.488Z,97816.56
2022-10-07T04:10:33.138Z,97806.69
2022-10-07T04:11:34.895Z,97806.31
2022-10-07T04:12:36.707Z,97808.75
2022-10-07T04:13:38.514Z,97809.38
2022-10-07T04:14:40.449Z,97808.53
2022-10-07T04:15:42.237Z,97805.31
2022-10-07T04:16:44.125Z,97807.94
2022-10-07T04:17:47.395Z,97806.13
2022-10-07T04:18:49.527Z,97805.13
2022-10-07T04:19:51.264Z,97802.50
2022-10-07T04:20:53.192Z,97800.06
2022-10-07T04:21:54.973Z,97798.47
2022-10-07T04:22:56.818Z,97804.50
2022-10-07T04:23:58.612Z,97799.47
2022-10-07T04:25:18.954Z,97802.06
2022-10-07T04:26:20.713Z,97794.44
2022-10-07T04:27:46.810Z,97792.19
2022-10-07T04:28:44.525Z,97795.41
2022-10-07T04:29:46.317Z,97801.28
2022-10-07T04:30:54.308Z,97796.84
2022-10-07T04:31:58.453Z,97794.84
2022-10-07T04:33:01.324Z,97799.69
2022-10-07T04:34:03.131Z,97796.06
2022-10-07T04:35:06.363Z,97795.88
2022-10-07T04:36:09.553Z,97788.19
2022-10-07T04:37:11.768Z,97791.22
2022-10-07T04:38:15.007Z,97789.59
2022-10-07T04:39:16.850Z,97795.66
2022-10-07T04:40:20.288Z,97792.44
2022-10-07T04:41:22.196Z,97796.03
2022-10-07T04:42:42.745Z,97788.00
2022-10-07T04:43:44.742Z,97789.59
2022-10-07T04:44:46.585Z,97792.81
2022-10-07T04:45:49.359Z,97791.84
2022-10-07T04:46:52.406Z,97787.59
2022-10-07T04:47:54.177Z,97793.66
2022-10-07T04:48:56.053Z,97790.22
2022-10-07T04:49:57.792Z,97795.25
2022-10-07T04:51:08.078Z,97796.47
2022-10-07T04:52:10.257Z,97788.41
2022-10-07T04:53:14.580Z,97793.66
2022-10-07T04:54:16.444Z,97793.03
2022-10-07T04:55:18.163Z,97794.03
2022-10-07T04:56:20.004Z,97789.41
2022-10-07T04:57:21.826Z,97783.19
2022-10-07T04:58:23.627Z,97793.25
2022-10-07T04:59:28.009Z,97784.41
2022-10-07T05:00:32.147Z,97786.00
2022-10-07T05:01:33.981Z,97785.03
2022-10-07T05:02:36.028Z,97785.41
2022-10-07T05:03:39.557Z,97792.44
2022-10-07T05:04:41.390Z,97788.41
2022-10-07T05:05:47.192Z,97792.63
2022-10-07T05:06:48.949Z,97790.63
2022-10-07T05:07:53.946Z,97785.41
2022-10-07T05:08:57.437Z,97785.59
2022-10-07T05:09:59.727Z,97789.84
2022-10-07T05:11:02.301Z,97787.22
2022-10-07T05:12:05.511Z,97789.22
2022-10-07T05:13:08.341Z,97795.66
2022-10-07T05:14:10.073Z,97790.22
2022-10-07T05:15:12.566Z,97790.44
2022-10-07T05:16:14.426Z,97790.22
2022-10-07T05:17:16.947Z,97787.22
2022-10-07T05:18:19.603Z,97793.06
2022-10-07T05:19:21.418Z,97788.41
2022-10-07T05:20:23.188Z,97797.06
2022-10-07T05:21:24.956Z,97787.59
2022-10-07T05:22:26.859Z,97793.41
2022-10-07T05:23:31.583Z,97791.19
2022-10-07T05:24:33.690Z,97785.09
2022-10-07T05:25:35.409Z,97791.16
2022-10-07T05:26:37.138Z,97791.94
2022-10-07T05:27:39.367Z,97788.34
2022-10-07T05:28:42.520Z,97790.16
2022-10-07T05:29:44.321Z,97793.19
2022-10-07T05:30:46.093Z,97786.53
2022-10-07T05:31:49.530Z,97797.00
2022-10-07T05:32:51.870Z,97787.13
2022-10-07T05:33:54.027Z,97790.56
2022-10-07T05:34:55.840Z,97794.81
2022-10-07T05:35:58.302Z,97784.53
2022-10-07T05:37:00.031Z,97781.09
2022-10-07T05:38:02.099Z,97786.34
2022-10-07T05:39:03.936Z,97783.53
2022-10-07T05:40:05.895Z,97784.53
2022-10-07T05:41:08.475Z,97783.47
2022-10-07T05:42:13.916Z,97781.69
2022-10-07T05:43:15.694Z,97779.06
2022-10-07T05:44:17.705Z,97782.88
2022-10-07T05:45:19.917Z,97780.47
2022-10-07T05:46:23.435Z,97779.44
2022-10-07T05:47:34.380Z,97782.47
2022-10-07T05:48:39.486Z,97777.41
2022-10-07T05:49:41.878Z,97779.00
2022-10-07T05:50:47.368Z,97779.84
2022-10-07T05:51:49.518Z,97775.41
2022-10-07T05:52:52.513Z,97783.88
2022-10-07T05:53:57.131Z,97782.06
2022-10-07T05:54:58.922Z,97783.44
2022-10-07T05:56:04.783Z,97788.06
2022-10-07T05:57:06.736Z,97783.84
2022-10-07T05:58:08.459Z,97786.25
2022-10-07T05:59:10.812Z,97789.31
2022-10-07T06:00:12.932Z,97788.94
2022-10-07T06:01:16.478Z,97793.75
2022-10-07T06:02:19.340Z,97787.72
2022-10-07T06:03:22.033Z,97782.88
2022-10-07T06:04:23.812Z,97789.91
2022-10-07T06:05:25.660Z,97791.91
2022-10-07T06:06:27.403Z,97788.31
2022-10-07T06:07:29.805Z,97785.47
2022-10-07T06:08:31.557Z,97782.88
2022-10-07T06:09:51.862Z,97782.06
2022-10-07T06:11:12.762Z,97790.53
2022-10-07T06:12:32.807Z,97785.91
2022-10-07T06:13:35.398Z,97789.53
2022-10-07T06:14:37.186Z,97787.28
2022-10-07T06:15:38.976Z,97781.88
2022-10-07T06:16:40.855Z,97783.69
2022-10-07T06:17:45.830Z,97789.31
2022-10-07T06:18:50.691Z,97787.88
2022-10-07T06:19:52.402Z,97794.31
2022-10-07T06:20:58.160Z,97786.22
2022-10-07T06:22:00.194Z,97791.44
2022-10-07T06:23:01.968Z,97785.75
2022-10-07T06:24:03.773Z,97788.19
2022-10-07T06:25:05.764Z,97788.19
2022-10-07T06:26:08.984Z,97793.88
2022-10-07T06:27:10.782Z,97790.66
2022-10-07T06:28:14.454Z,97789.28
2022-10-07T06:29:16.427Z,97785.44
2022-10-07T06:30:18.216Z,97791.91
2022-10-07T06:31:25.972Z,97787.13
2022-10-07T06:32:29.695Z,97784.31
2022-10-07T06:33:31.566Z,97786.94
2022-10-07T06:34:33.375Z,97787.91
2022-10-07T06:35:35.077Z,97788.09
2022-10-07T06:36:36.850Z,97791.91
2022-10-07T06:37:39.592Z,97785.09
2022-10-07T06:38:51.983Z,97791.13
2022-10-07T06:39:58.707Z,97786.31
2022-10-07T06:41:02.127Z,97790.34
2022-10-07T06:42:03.963Z,97789.53
2022-10-07T06:43:06.183Z,97792.78
2022-10-07T06:44:08.041Z,97792.78
2022-10-07T06:45:10.085Z,97789.53
2022-10-07T06:46:19.434Z,97788.94
2022-10-07T06:47:21.839Z,97789.53
2022-10-07T06:48:23.599Z,97795.19
2022-10-07T06:49:25.322Z,97790.97
2022-10-07T06:50:27.371Z,97788.16
2022-10-07T06:51:29.338Z,97794.38
2022-10-07T06:52:31.145Z,97790.78
2022-10-07T06:53:33.252Z,97791.38
2022-10-07T06:54:35.018Z,97794.63
2022-10-07T06:55:38.000Z,97793.41
2022-10-07T06:56:39.738Z,97787.81
2022-10-07T06:57:45.622Z,97789.84
2022-10-07T06:58:58.014Z,97784.19
2022-10-07T07:00:01.665Z,97784.41
2022-10-07T07:01:03.875Z,97783.56
2022-10-07T07:02:05.908Z,97789.41
2022-10-07T07:03:07.676Z,97791.59
2022-10-07T07:04:09.575Z,97782.94
2022-10-07T07:05:14.360Z,97781.13
2022-10-07T07:06:16.166Z,97785.19
2022-10-07T07:07:17.907Z,97786.97
2022-10-07T07:08:19.999Z,97789.41
2022-10-07T07:09:23.114Z,97785.41
2022-10-07T07:10:24.903Z,97784.41
2022-10-07T07:11:41.934Z,97779.78
2022-10-07T07:12:44.072Z,97789.25
2022-10-07T07:13:46.181Z,97779.19
2022-10-07T07:14:48.022Z,97782.81
2022-10-07T07:15:59.980Z,97777.97
2022-10-07T07:17:01.989Z,97782.19
2022-10-07T07:18:05.356Z,97783.81
2022-10-07T07:19:08.952Z,97781.00
2022-10-07T07:20:10.955Z,97784.63
2022-10-07T07:21:12.717Z,97783.25
2022-10-07T07:22:14.556Z,97782.25
2022-10-07T07:23:16.383Z,97786.47
2022-10-07T07:24:18.224Z,97786.47
2022-10-07T07:25:20.366Z,97788.09
2022-10-07T07:26:22.288Z,97780.06
2022-10-07T07:27:24.010Z,97785.28
2022-10-07T07:28:25.845Z,97776.00
2022-10-07T07:29:27.762Z,97785.09
2022-10-07T07:30:30.661Z,97783.84
2022-10-07T07:31:33.535Z,97781.03
2022-10-07T07:32:35.329Z,97780.84
2022-10-07T07:33:38.604Z,97774.63
2022-10-07T07:34:40.402Z,97775.22
2022-10-07T07:35:43.857Z,97775.44
2022-10-07T07:36:47.509Z,97775.63
2022-10-07T07:37:49.452Z,97777.03
2022-10-07T07:38:53.331Z,97767.75
2022-10-07T07:39:55.260Z,97774.44
2022-10-07T07:40:57.087Z,97774.03
2022-10-07T07:41:58.860Z,97772.22
2022-10-07T07:43:00.715Z,97770.03
2022-10-07T07:44:03.997Z,97772.47
2022-10-07T07:45:05.953Z,97774.06
2022-10-07T07:46:07.854Z,97770.88
2022-10-07T07:47:09.862Z,97765.41
2022-10-07T07:48:13.209Z,97762.41
2022-10-07T07:49:16.193Z,97759.59
2022-10-07T07:50:21.010Z,97760.81
2022-10-07T07:51:23.005Z,97756.81
2022-10-07T07:52:26.043Z,97762.66
2022-10-07T07:53:27.871Z,97752.78
2022-10-07T07:54:29.640Z,97760.63
2022-10-07T07:55:31.353Z,97756.19
2022-10-07T07:56:33.284Z,97748.75
2022-10-07T07:57:35.131Z,97752.34
2022-10-07T07:58:36.982Z,97750.34
2022-10-07T07:59:39.046Z,97749.94
2022-10-07T08:00:40.794Z,97744.72
2022-10-07T08:01:44.478Z,97745.13
2022-10-07T08:02:46.800Z,97743.72
2022-10-07T08:03:49.004Z,97747.31
2022-10-07T08:04:50.852Z,97749.16
2022-10-07T08:05:52.796Z,97743.50
2022-10-07T08:06:55.820Z,97745.13
2022-10-07T08:07:58.400Z,97743.09
2022-10-07T08:09:00.206Z,97744.91
2022-10-07T08:10:02.055Z,97741.28
2022-10-07T08:11:10.806Z,97747.94
2022-10-07T08:12:14.832Z,97743.31
2022-10-07T08:13:16.647Z,97738.06
2022-10-07T08:14:18.468Z,97739.66
2022-10-07T08:15:20.278Z,97734.81
2022-10-07T08:16:23.635Z,97738.84
2022-10-07T08:17:25.703Z,97733.22
2022-10-07T08:18:27.513Z,97736.44
2022-10-07T08:19:32.072Z,97730.81
2022-10-07T08:20:33.967Z,97740.88
2022-10-07T08:21:35.881Z,97730.38
2022-10-07T08:22:37.664Z,97735.03
2022-10-07T08:23:40.146Z,97730.00
2022-10-07T08:24:43.334Z,97726.56
2022-10-07T08:25:45.710Z,97729.34
2022-10-07T08:26:48.152Z,97727.34
2022-10-07T08:27:50.054Z,97715.59
2022-10-07T08:28:51.919Z,97721.88
2022-10-07T08:29:53.745Z,97728.31
2022-10-07T08:30:56.191Z,97719.63
2022-10-07T08:31:57.952Z,97713.16
2022-10-07T08:33:01.554Z,97718.41
2022-10-07T08:34:04.307Z,97719.38
2022-10-07T08:35:06.238Z,97721.63
2022-10-07T08:36:08.861Z,97714.78
2022-10-07T08:37:10.635Z,97713.34
2022-10-07T08:38:14.622Z,97717.56
2022-10-07T08:39:16.631Z,97711.09
2022-10-07T08:40:18.934Z,97712.69
2022-10-07T08:41:20.803Z,97712.47
2022-10-07T08:42:33.805Z,97710.63
2022-10-07T08:43:38.319Z,97712.44
2022-10-07T08:44:44.775Z,97708.78
2022-10-07T08:45:47.682Z,97704.50
2022-10-07T08:46:59.360Z,97710.97
2022-10-07T08:48:03.745Z,97704.66
2022-10-07T08:49:08.398Z,97703.41
2022-10-07T08:50:19.556Z,97701.38
2022-10-07T08:51:25.657Z,97697.16
2022-10-07T08:52:34.819Z,97701.56
2022-10-07T08:53:37.970Z,97697.28
2022-10-07T08:54:39.829Z,97697.47
2022-10-07T08:56:01.826Z,97695.81
2022-10-07T08:57:23.834Z,97696.16
2022-10-07T08:58:25.534Z,97687.47
2022-10-07T08:59:34.467Z,97683.59
2022-10-07T09:00:59.593Z,97684.97
2022-10-07T09:02:01.354Z,97679.31
2022-10-07T09:03:11.630Z,97680.03
2022-10-07T09:04:20.210Z,97681.00
2022-10-07T09:05:22.047Z,97673.25
2022-10-07T09:06:28.753Z,97673.84
2022-10-07T09:07:32.574Z,97673.84
2022-10-07T09:08:37.973Z,97667.13
2022-10-07T09:09:43.164Z,97671.16
2022-10-07T09:10:48.808Z,97660.78
2022-10-07T09:11:51.579Z,97663.44
2022-10-07T09:12:54.325Z,97661.38
2022-10-07T09:14:18.837Z,97662.31
2022-10-07T09:15:29.513Z,97662.03
2022-10-07T09:16:38.851Z,97652.31
2022-10-07T09:17:43.876Z,97657.97
2022-10-07T09:18:51.153Z,97656.25
2022-10-07T09:19:58.460Z,97654.97
2022-10-07T09:21:00.663Z,97649.41
2022-10-07T09:22:17.303Z,97650.00
2022-10-07T09:23:20.808Z,97645.09
2022-10-07T09:24:24.780Z,97646.03
2022-10-07T09:25:27.942Z,97644.78
2022-10-07T09:26:31.434Z,97643.31
2022-10-07T09:27:33.771Z,97645.75
2022-10-07T09:28:36.118Z,97638.06
2022-10-07T09:29:38.575Z,97638.44
2022-10-07T09:30:41.010Z,97641.66
2022-10-07T09:31:42.977Z,97635.47
2022-10-07T09:32:46.035Z,97632.97
2022-10-07T09:33:50.574Z,97636.56
2022-10-07T09:34:52.840Z,97637.28
2022-10-07T09:35:59.026Z,97628.78
2022-10-07T09:37:11.616Z,97631.56
2022-10-07T09:38:13.447Z,97633.09
2022-10-07T09:39:24.363Z,97628.09
2022-10-07T09:40:34.384Z,97617.22
2022-10-07T09:41:38.985Z,97624.22
2022-10-07T09:42:46.023Z,97613.00
2022-10-07T09:43:54.340Z,97628.94
2022-10-07T09:44:58.119Z,97625.63
2022-10-07T09:46:01.221Z,97612.56
2022-10-07T09:47:16.691Z,97614.31
2022-10-07T09:48:22.352Z,97618.44
2022-10-07T09:49:31.193Z,97621.97
2022-10-07T09:50:38.162Z,97617.41
2022-10-07T09:51:40.554Z,97615.91
2022-10-07T09:52:54.994Z,97620.97
2022-10-07T09:53:58.113Z,97613.97
2022-10-07T09:55:22.980Z,97609.84
2022-10-07T09:56:37.026Z,97611.00
2022-10-07T09:57:40.634Z,97600.22
2022-10-07T09:58:42.496Z,97601.03
2022-10-07T09:59:44.229Z,97601.13
2022-10-07T10:00:47.130Z,97595.16
2022-10-07T10:01:59.962Z,97597.19
2022-10-07T10:03:05.799Z,97589.75
2022-10-07T10:04:16.630Z,97584.31
2022-10-07T10:05:31.971Z,97581.09
2022-10-07T10:06:33.958Z,97579.88
2022-10-07T10:07:37.684Z,97580.00
2022-10-07T10:08:42.089Z,97579.84
2022-10-07T10:09:54.537Z,97575.13
2022-10-07T10:10:57.857Z,97577.66
2022-10-07T10:12:02.796Z,97567.94
2022-10-07T10:13:06.179Z,97576.56
2022-10-07T10:14:37.468Z,97574.25
2022-10-07T10:15:41.370Z,97574.69
2022-10-07T10:16:46.772Z,97568.44
2022-10-07T10:17:48.882Z,97570.34
2022-10-07T10:18:59.166Z,97568.28
2022-10-07T10:20:19.633Z,97569.16
2022-10-07T10:21:30.113Z,97562.03
2022-10-07T10:22:31.897Z,97555.25
2022-10-07T10:23:38.549Z,97561.66
2022-10-07T10:24:58.880Z,97557.50
2022-10-07T10:26:32.729Z,97556.44
2022-10-07T10:27:41.884Z,97560.28
2022-10-07T10:28:54.123Z,97557.94
2022-10-07T10:29:58.742Z,97560.91
2022-10-07T10:31:04.174Z,97547.22
2022-10-07T10:32:05.853Z,97556.03
2022-10-07T10:33:15.981Z,97555.53
2022-10-07T10:34:18.326Z,97547.69
2022-10-07T10:35:28.972Z,97549.28
2022-10-07T10:36:33.192Z,97549.91
2022-10-07T10:37:42.603Z,97544.91
2022-10-07T10:39:10.878Z,97546.03
2022-10-07T10:40:31.025Z,97547.03
2022-10-07T10:41:37.753Z,97538.97
2022-10-07T10:42:58.629Z,97544.25
2022-10-07T10:44:20.639Z,97541.66
2022-10-07T10:45:46.597Z,97546.47
2022-10-07T10:46:57.649Z,97544.41
2022-10-07T10:48:12.802Z,97548.94
2022-10-07T10:49:27.560Z,97541.34
2022-10-07T10:50:29.309Z,97544.31
2022-10-07T10:51:51.371Z,97531.94
2022-10-07T10:53:02.350Z,97536.47
2022-10-07T10:54:14.992Z,97533.38
2022-10-07T10:55:30.100Z,97535.50
2022-10-07T10:56:50.406Z,97527.84
2022-10-07T10:58:18.531Z,97525.25
2022-10-07T10:59:38.377Z,97529.56
2022-10-07T11:00:46.411Z,97521.88
2022-10-07T11:01:52.849Z,97526.75
2022-10-07T11:03:01.031Z,97520.22
2022-10-07T11:04:34.848Z,97515.47
2022-10-07T11:05:40.619Z,97514.44
2022-10-07T11:06:45.306Z,97514.72
2022-10-07T11:08:08.799Z,97514.75
2022-10-07T11:09:15.894Z,97510.09
2022-10-07T11:10:46.899Z,97509.88
2022-10-07T11:11:49.400Z,97515.72
2022-10-07T11:12:55.048Z,97503.28
2022-10-07T11:13:59.374Z,97505.69
2022-10-07T11:15:07.215Z,97508.09
2022-10-07T11:16:12.177Z,97509.69
2022-10-07T11:17:16.242Z,97508.41
2022-10-07T11:18:27.502Z,97509.22
2022-10-07T11:19:38.054Z,97508.47
2022-10-07T11:20:48.332Z,97499.75
2022-10-07T11:21:51.183Z,97503.22
2022-10-07T11:22:57.413Z,97503.25
2022-10-07T11:24:04.039Z,97505.19
2022-10-07T11:25:10.143Z,97510.81
2022-10-07T11:26:15.839Z,97499.66
2022-10-07T11:27:21.352Z,97504.75
2022-10-07T11:28:26.235Z,97499.75
2022-10-07T11:29:39.892Z,97492.03
2022-10-07T11:30:45.379Z,97497.63
2022-10-07T11:32:10.246Z,97495.50
2022-10-07T11:33:16.898Z,97496.06
2022-10-07T11:34:21.988Z,97489.16
2022-10-07T11:35:26.357Z,97489.41
2022-10-07T11:36:46.497Z,97485.41
2022-10-07T11:37:54.919Z,97482.75
2022-10-07T11:38:56.608Z,97482.81
2022-10-07T11:39:58.406Z,97485.72
2022-10-07T11:41:03.904Z,97488.13
2022-10-07T11:42:17.670Z,97475.63
2022-10-07T11:43:25.676Z,97478.06
2022-10-07T11:44:42.120Z,97475.41
2022-10-07T11:45:50.411Z,97472.78
2022-10-07T11:46:54.135Z,97466.38
2022-10-07T11:48:19.311Z,97466.66
2022-10-07T11:49:23.859Z,97465.34
2022-10-07T11:50:33.465Z,97470.44
2022-10-07T11:51:38.413Z,97470.13
2022-10-07T11:52:42.170Z,97468.81
2022-10-07T11:53:44.769Z,97462.72
2022-10-07T11:55:04.975Z,97465.91
2022-10-07T11:56:17.932Z,97460.31
2022-10-07T11:57:22.284Z,97456.84
2022-10-07T11:58:26.936Z,97447.84
2022-10-07T11:59:34.756Z,97443.84
2022-10-07T12:00:39.963Z,97444.09
2022-10-07T12:01:47.539Z,97445.16
2022-10-07T12:02:49.962Z,97443.56
2022-10-07T12:03:53.193Z,97442.22
2022-10-07T12:04:59.823Z,97439.59
2022-10-07T12:06:10.463Z,97432.94
2022-10-07T12:07:35.024Z,97436.94
2022-10-07T12:08:38.783Z,97431.34
2022-10-07T12:09:52.739Z,97434.53
2022-10-07T12:10:55.824Z,97429.50
2022-10-07T12:11:57.712Z,97433.47
2022-10-07T12:13:00.952Z,97427.63
2022-10-07T12:14:32.219Z,97426.84
2022-10-07T12:15:33.923Z,97418.03
2022-10-07T12:16:35.733Z,97424.97
2022-10-07T12:17:37.538Z,97421.53
2022-10-07T12:18:39.265Z,97427.13
2022-10-07T12:19:41.146Z,97426.03
2022-10-07T12:20:53.125Z,97423.91
2022-10-07T12:22:00.858Z,97414.88
2022-10-07T12:23:20.990Z,97415.66
2022-10-07T12:24:22.771Z,97418.09
2022-10-07T12:25:29.489Z,97412.78
2022-10-07T12:26:31.286Z,97415.44
2022-10-07T12:27:34.431Z,97410.66
2022-10-07T12:28:42.130Z,97410.94
2022-10-07T12:29:48.671Z,97410.66
2022-10-07T12:30:52.342Z,97404.28
2022-10-07T12:31:54.176Z,97406.38
2022-10-07T12:32:57.106Z,97409.28
2022-10-07T12:33:59.745Z,97400.50
2022-10-07T12:35:21.482Z,97401.34
2022-10-07T12:36:24.001Z,97397.31
2022-10-07T12:37:40.750Z,97400.50
2022-10-07T12:38:42.858Z,97402.09
2022-10-07T12:39:44.682Z,97403.72
2022-10-07T12:40:49.058Z,97393.09
2022-10-07T12:41:51.268Z,97395.75
2022-10-07T12:43:04.200Z,97395.22
2022-10-07T12:44:08.760Z,97398.91
2022-10-07T12:45:11.048Z,97395.22
2022-10-07T12:46:18.829Z,97389.88
2022-10-07T12:47:29.311Z,97398.13
2022-10-07T12:48:34.163Z,97387.72
2022-10-07T12:49:37.367Z,97398.13
2022-10-07T12:50:40.102Z,97392.25